Time;durP1;ratioP1;P1;durP2;ratioP2;P2;SDS_P1;SDS_P2;PMS_P1;PMS_P2;Temp;Humidity;BMP_temperature;BMP_pressure;BME280_temperature;BME280_humidity;BME280_pressure;Samples;Min_cycle;Max_cycle;Signal;HPM_P1;HPM_P2
2024/01/18 00:00:20;;;;;;;17.65;12.30;;;1.50;99.90;;;;;;5056347;28;20528;-86
2024/01/18 00:02:46;;;;;;;19.15;13.52;;;1.50;99.90;;;;;;5023503;28;20052;-85
2024/01/18 00:05:12;;;;;;;18.40;12.65;;;1.50;99.90;;;;;;5028892;28;20115;-86
2024/01/18 00:07:37;;;;;;;17.63;12.40;;;1.50;99.90;;;;;;5073997;28;20036;-86
2024/01/18 00:10:03;;;;;;;16.55;12.80;;;1.50;99.90;;;;;;5056291;28;20028;-86
2024/01/18 00:12:29;;;;;;;22.67;14.02;;;1.50;99.90;;;;;;5039891;28;20028;-85
2024/01/18 00:14:57;;;;;;;19.50;14.20;;;1.50;99.90;;;;;;5080543;28;20121;-83
2024/01/18 00:17:23;;;;;;;20.40;13.80;;;1.50;99.90;;;;;;5043185;28;20036;-86
2024/01/18 00:19:48;;;;;;;17.52;13.20;;;1.50;99.90;;;;;;5031931;28;20033;-86
2024/01/18 00:22:14;;;;;;;22.45;14.75;;;1.50;99.90;;;;;;5048758;28;20028;-85
2024/01/18 00:24:39;;;;;;;19.88;13.45;;;1.50;99.90;;;;;;5046509;28;20012;-86
2024/01/18 00:27:06;;;;;;;16.45;12.70;;;1.50;99.90;;;;;;5063401;28;20076;-85
2024/01/18 00:29:33;;;;;;;18.05;13.50;;;1.50;99.90;;;;;;5083133;28;20029;-85
2024/01/18 00:31:58;;;;;;;18.60;13.60;;;1.50;99.90;;;;;;5105609;28;20483;-85
2024/01/18 00:34:24;;;;;;;19.63;13.40;;;1.50;99.90;;;;;;5061458;28;20028;-86
2024/01/18 00:36:50;;;;;;;21.13;13.90;;;1.40;99.90;;;;;;5032562;28;20036;-86
2024/01/18 00:39:18;;;;;;;21.27;13.65;;;1.40;99.90;;;;;;5080112;28;20024;-86
2024/01/18 00:41:47;;;;;;;21.50;14.15;;;1.50;99.90;;;;;;5080060;28;20034;-85
2024/01/18 00:44:14;;;;;;;19.77;13.65;;;1.40;99.90;;;;;;5058529;28;20029;-84
2024/01/18 00:46:40;;;;;;;18.73;13.45;;;1.40;99.90;;;;;;5059994;28;20032;-86
2024/01/18 00:49:05;;;;;;;19.30;13.57;;;1.40;99.90;;;;;;5059849;28;20032;-85
2024/01/18 00:51:31;;;;;;;19.25;13.82;;;1.40;99.90;;;;;;5043059;28;20396;-85
2024/01/18 00:53:57;;;;;;;18.83;13.90;;;1.30;99.90;;;;;;5061345;28;20028;-86
2024/01/18 00:56:22;;;;;;;18.23;13.07;;;1.40;99.90;;;;;;5059543;28;20124;-86
2024/01/18 00:58:49;;;;;;;22.27;13.85;;;1.30;99.90;;;;;;5059420;28;20048;-86
2024/01/18 01:01:15;;;;;;;19.90;14.43;;;1.30;99.90;;;;;;5043259;28;20114;-86
2024/01/18 01:03:41;;;;;;;22.55;14.57;;;1.30;99.90;;;;;;5070988;28;20062;-86
2024/01/18 01:06:12;;;;;;;19.30;13.65;;;1.30;99.90;;;;;;5097387;28;20023;-85
2024/01/18 01:08:39;;;;;;;20.33;14.20;;;1.30;99.90;;;;;;5072447;28;20013;-86
2024/01/18 01:11:05;;;;;;;18.27;14.07;;;1.30;99.90;;;;;;5042799;28;20028;-86
2024/01/18 01:13:31;;;;;;;20.38;13.77;;;1.20;99.90;;;;;;5054262;28;20028;-86
2024/01/18 01:15:56;;;;;;;21.02;14.45;;;1.20;99.90;;;;;;5079172;28;20480;-85
2024/01/18 01:18:22;;;;;;;19.50;14.23;;;1.20;99.90;;;;;;5091509;28;20024;-85
2024/01/18 01:20:48;;;;;;;18.42;13.35;;;1.20;99.90;;;;;;5046810;28;20035;-86
2024/01/18 01:23:15;;;;;;;24.13;15.68;;;1.20;99.90;;;;;;5042577;28;20123;-86
2024/01/18 01:25:40;;;;;;;24.83;14.88;;;1.20;99.90;;;;;;5059057;28;20112;-86
2024/01/18 01:28:06;;;;;;;19.02;13.65;;;1.20;99.90;;;;;;5076521;28;20052;-85
2024/01/18 01:30:34;;;;;;;23.52;15.02;;;1.20;99.90;;;;;;5059159;28;20545;-85
2024/01/18 01:33:00;;;;;;;21.48;14.82;;;1.20;99.90;;;;;;5059030;28;20082;-86
2024/01/18 01:35:26;;;;;;;23.02;14.55;;;1.20;99.90;;;;;;5068811;28;20795;-85
2024/01/18 01:37:51;;;;;;;22.52;15.52;;;1.20;99.90;;;;;;5063351;28;20480;-86
2024/01/18 01:40:18;;;;;;;20.40;14.38;;;1.20;99.90;;;;;;5061489;28;20048;-84
2024/01/18 01:42:44;;;;;;;23.98;16.02;;;1.10;99.90;;;;;;5100782;28;20019;-83
2024/01/18 01:45:10;;;;;;;20.83;15.18;;;1.10;99.90;;;;;;5066401;28;20009;-83
2024/01/18 01:47:36;;;;;;;24.67;16.10;;;1.10;99.90;;;;;;5083117;28;20020;-85
2024/01/18 01:50:02;;;;;;;23.08;15.30;;;1.10;99.90;;;;;;5065856;28;20028;-85
2024/01/18 01:52:30;;;;;;;21.45;14.38;;;1.10;99.90;;;;;;5045112;28;20105;-85
2024/01/18 01:54:57;;;;;;;21.67;15.60;;;1.10;99.90;;;;;;5058052;28;20043;-85
2024/01/18 01:57:24;;;;;;;23.45;16.02;;;1.00;99.90;;;;;;5059664;28;20036;-85
2024/01/18 01:59:50;;;;;;;19.90;14.30;;;1.00;99.90;;;;;;5059188;28;20036;-85
2024/01/18 02:02:17;;;;;;;20.85;14.27;;;0.90;99.90;;;;;;5062259;28;20452;-85
2024/01/18 02:04:43;;;;;;;20.40;14.32;;;0.90;99.90;;;;;;5072788;28;20020;-85
2024/01/18 02:07:11;;;;;;;21.33;14.55;;;0.80;99.90;;;;;;5087339;28;20031;-85
2024/01/18 02:09:39;;;;;;;19.77;14.15;;;0.80;99.90;;;;;;5058274;28;20021;-85
2024/01/18 02:12:05;;;;;;;20.80;13.82;;;0.90;99.90;;;;;;5058924;28;20468;-85
2024/01/18 02:14:31;;;;;;;19.20;14.77;;;0.80;99.90;;;;;;5058159;28;20056;-85
2024/01/18 02:16:57;;;;;;;24.40;15.93;;;0.80;99.90;;;;;;5041635;28;20075;-85
2024/01/18 02:19:22;;;;;;;20.30;14.70;;;0.80;99.90;;;;;;5024981;28;20028;-85
2024/01/18 02:21:48;;;;;;;20.38;14.85;;;0.70;99.90;;;;;;5058354;28;20073;-85
2024/01/18 02:24:20;;;;;;;22.40;14.63;;;0.70;99.90;;;;;;5057916;28;20020;-84
2024/01/18 02:26:46;;;;;;;19.77;14.18;;;0.70;99.90;;;;;;5060303;28;20036;-84
2024/01/18 02:29:11;;;;;;;21.42;14.30;;;0.70;99.90;;;;;;5056510;28;20549;-85
2024/01/18 02:31:37;;;;;;;23.30;15.10;;;0.60;99.90;;;;;;5074873;28;20359;-85
2024/01/18 02:34:09;;;;;;;21.27;14.50;;;0.60;99.90;;;;;;5060414;28;20035;-86
2024/01/18 02:36:38;;;;;;;20.20;14.82;;;0.60;99.90;;;;;;5058853;28;20041;-85
2024/01/18 02:39:03;;;;;;;25.73;15.40;;;0.60;99.90;;;;;;5070392;28;20031;-85
2024/01/18 02:41:32;;;;;;;22.08;14.13;;;0.50;99.90;;;;;;5089909;28;20012;-85
2024/01/18 02:43:59;;;;;;;22.50;15.50;;;0.50;99.90;;;;;;5044045;28;20032;-85
2024/01/18 02:46:25;;;;;;;18.98;14.50;;;0.40;99.90;;;;;;5059106;28;20039;-85
2024/01/18 02:48:50;;;;;;;22.85;15.05;;;0.40;99.90;;;;;;5059304;28;20024;-85
2024/01/18 02:51:16;;;;;;;20.45;14.32;;;0.40;99.90;;;;;;5057428;28;20099;-84
2024/01/18 02:53:43;;;;;;;21.77;15.25;;;0.40;99.90;;;;;;5074022;28;20415;-85
2024/01/18 02:56:08;;;;;;;19.80;14.05;;;0.30;99.90;;;;;;5106381;28;20020;-83
2024/01/18 02:58:34;;;;;;;22.88;14.70;;;0.30;99.90;;;;;;5063862;28;20066;-84
2024/01/18 03:01:00;;;;;;;22.20;14.98;;;0.30;99.90;;;;;;5065013;28;20012;-83
2024/01/18 03:03:25;;;;;;;21.70;15.00;;;0.30;99.90;;;;;;5073613;28;20096;-84
2024/01/18 03:05:51;;;;;;;23.15;14.70;;;0.30;99.90;;;;;;5049880;28;20433;-85
2024/01/18 03:08:17;;;;;;;22.27;15.40;;;0.20;99.90;;;;;;5077493;28;20028;-83
2024/01/18 03:10:42;;;;;;;21.35;14.02;;;0.20;99.90;;;;;;5083058;28;20020;-86
2024/01/18 03:13:08;;;;;;;20.10;15.57;;;0.20;99.90;;;;;;5044364;28;20032;-84
2024/01/18 03:15:34;;;;;;;21.70;14.30;;;0.20;99.90;;;;;;5056490;28;20024;-84
2024/01/18 03:17:59;;;;;;;22.75;14.90;;;0.10;99.90;;;;;;5056516;28;20079;-84
2024/01/18 03:20:25;;;;;;;19.13;13.25;;;0.10;99.90;;;;;;5074265;28;20036;-85
2024/01/18 03:22:51;;;;;;;21.88;14.10;;;0.10;99.90;;;;;;5056634;28;20074;-85
2024/01/18 03:25:17;;;;;;;22.15;14.43;;;0.10;99.90;;;;;;5056963;28;20033;-85
2024/01/18 03:27:43;;;;;;;20.90;12.82;;;0.10;99.90;;;;;;5056445;28;20206;-85
2024/01/18 03:30:09;;;;;;;20.33;13.45;;;0.10;99.90;;;;;;5059776;28;20019;-85
2024/01/18 03:32:35;;;;;;;20.10;12.52;;;0.10;99.90;;;;;;5039626;28;20490;-84
2024/01/18 03:35:01;;;;;;;19.85;14.05;;;0.10;99.90;;;;;;5056074;28;20103;-85
2024/01/18 03:37:27;;;;;;;19.00;12.82;;;0.10;99.90;;;;;;5056480;28;20098;-85
2024/01/18 03:39:52;;;;;;;19.13;13.40;;;0.10;99.90;;;;;;5053418;28;20025;-85
2024/01/18 03:42:19;;;;;;;16.92;11.88;;;0.10;99.90;;;;;;5041979;28;20528;-85
2024/01/18 03:44:44;;;;;;;19.65;12.45;;;0.10;99.90;;;;;;5058356;28;20024;-85
2024/01/18 03:47:10;;;;;;;19.50;11.68;;;0.10;99.90;;;;;;5056316;28;20373;-85
2024/01/18 03:49:36;;;;;;;19.20;12.82;;;0.10;99.90;;;;;;5069164;28;20027;-85
2024/01/18 03:52:01;;;;;;;18.95;12.82;;;0.10;99.90;;;;;;5057530;28;20025;-85
2024/01/18 03:54:27;;;;;;;19.00;13.10;;;0.10;99.90;;;;;;5028988;28;20376;-85
2024/01/18 03:56:53;;;;;;;20.20;13.57;;;0.00;99.90;;;;;;5048408;28;20036;-85
2024/01/18 03:59:20;;;;;;;23.83;13.98;;;0.00;99.90;;;;;;5071526;28;20045;-85
2024/01/18 04:01:45;;;;;;;18.02;13.13;;;-0.10;99.90;;;;;;5055534;28;20039;-85
2024/01/18 04:04:11;;;;;;;20.15;13.32;;;-0.10;99.90;;;;;;5052093;28;20191;-84
2024/01/18 04:06:37;;;;;;;21.98;14.40;;;-0.10;99.90;;;;;;5036500;28;20071;-84
2024/01/18 04:09:03;;;;;;;18.67;13.70;;;-0.20;99.90;;;;;;5054522;28;20033;-84
2024/01/18 04:11:29;;;;;;;21.73;14.55;;;-0.20;99.90;;;;;;5056740;28;20017;-82
2024/01/18 04:13:55;;;;;;;22.45;14.40;;;-0.20;99.90;;;;;;5075317;28;20036;-84
2024/01/18 04:16:21;;;;;;;21.08;14.35;;;-0.20;99.90;;;;;;5051163;28;20105;-84
2024/01/18 04:18:46;;;;;;;23.48;14.85;;;-0.20;99.90;;;;;;5042241;28;20029;-83
2024/01/18 04:21:13;;;;;;;22.42;14.10;;;-0.20;99.90;;;;;;5036162;28;20520;-84
2024/01/18 04:23:39;;;;;;;21.80;14.18;;;-0.30;99.90;;;;;;5067276;28;20021;-84
2024/01/18 04:26:05;;;;;;;19.42;14.20;;;-0.30;99.90;;;;;;5052451;28;20075;-84
2024/01/18 04:28:31;;;;;;;20.58;13.88;;;-0.30;99.90;;;;;;5038234;28;20028;-83
2024/01/18 04:30:57;;;;;;;19.35;14.02;;;-0.40;99.90;;;;;;5055138;28;20036;-84
2024/01/18 04:33:23;;;;;;;19.73;13.27;;;-0.40;99.90;;;;;;5044822;28;20024;-84
2024/01/18 04:35:49;;;;;;;22.60;14.45;;;-0.40;99.90;;;;;;5055229;28;20082;-85
2024/01/18 04:38:14;;;;;;;21.45;14.32;;;-0.50;99.90;;;;;;5054884;28;20025;-84
2024/01/18 04:40:40;;;;;;;21.00;13.38;;;-0.50;99.90;;;;;;5055482;28;20029;-83
2024/01/18 04:43:06;;;;;;;23.85;14.45;;;-0.50;99.90;;;;;;5071942;28;20032;-84
2024/01/18 04:45:34;;;;;;;19.35;12.90;;;-0.50;99.90;;;;;;5072506;28;20032;-84
2024/01/18 04:48:00;;;;;;;21.27;14.13;;;-0.50;99.90;;;;;;5055568;28;20468;-84
2024/01/18 04:50:25;;;;;;;21.35;14.13;;;-0.60;99.90;;;;;;5052096;28;20040;-84
2024/01/18 04:52:52;;;;;;;20.63;14.00;;;-0.60;99.90;;;;;;5039612;28;20020;-83
2024/01/18 04:55:18;;;;;;;21.52;14.02;;;-0.60;99.90;;;;;;5039000;28;20049;-83
2024/01/18 04:57:44;;;;;;;22.40;13.90;;;-0.60;99.90;;;;;;5049820;28;20071;-84
2024/01/18 05:00:10;;;;;;;18.30;13.32;;;-0.70;99.90;;;;;;5054751;28;20495;-84
2024/01/18 05:02:37;;;;;;;18.75;13.38;;;-0.70;99.90;;;;;;5054468;28;20056;-84
2024/01/18 05:05:03;;;;;;;22.80;14.48;;;-0.70;99.90;;;;;;5052648;28;20033;-84
2024/01/18 05:07:28;;;;;;;19.77;13.30;;;-0.70;99.90;;;;;;5070316;28;20107;-84
2024/01/18 05:09:54;;;;;;;19.13;12.88;;;-0.80;99.90;;;;;;5054885;28;20491;-84
2024/01/18 05:12:20;;;;;;;16.73;12.50;;;-0.80;99.90;;;;;;5039650;28;20439;-84
2024/01/18 05:14:45;;;;;;;21.17;12.77;;;-0.80;99.90;;;;;;5052169;28;20029;-83
2024/01/18 05:17:12;;;;;;;20.13;12.88;;;-0.80;99.90;;;;;;5058545;28;20029;-84
2024/01/18 05:19:38;;;;;;;19.48;12.90;;;-0.90;99.90;;;;;;5063378;28;20108;-84
2024/01/18 05:22:09;;;;;;;17.60;12.02;;;-0.90;99.90;;;;;;5055726;28;20127;-83
2024/01/18 05:24:34;;;;;;;20.13;13.68;;;-0.90;99.90;;;;;;5076703;28;20039;-84
2024/01/18 05:27:00;;;;;;;18.75;12.85;;;-1.00;99.90;;;;;;5100300;28;20044;-84
2024/01/18 05:29:26;;;;;;;21.20;12.55;;;-1.00;99.90;;;;;;5100138;28;20024;-85
2024/01/18 05:31:51;;;;;;;18.35;12.48;;;-1.00;99.90;;;;;;5063151;28;20393;-83
2024/01/18 05:34:17;;;;;;;20.35;13.13;;;-1.00;99.90;;;;;;5038244;28;20029;-83
2024/01/18 05:36:43;;;;;;;15.75;11.57;;;-1.00;99.90;;;;;;5038122;28;20079;-83
2024/01/18 05:39:09;;;;;;;18.80;12.70;;;-1.00;99.90;;;;;;5039652;28;20458;-84
2024/01/18 05:41:34;;;;;;;18.60;13.02;;;-1.00;99.90;;;;;;5050632;28;20384;-84
2024/01/18 05:44:00;;;;;;;18.60;11.32;;;-1.00;99.90;;;;;;5041671;28;20037;-83
2024/01/18 05:46:26;;;;;;;19.85;12.27;;;-1.10;99.90;;;;;;5059954;28;20114;-83
2024/01/18 05:48:52;;;;;;;20.38;12.30;;;-1.10;99.90;;;;;;5055055;28;20048;-84
2024/01/18 05:51:17;;;;;;;20.13;12.63;;;-1.10;99.90;;;;;;5058388;28;20037;-85
2024/01/18 05:53:44;;;;;;;18.23;11.90;;;-1.20;99.90;;;;;;5067385;28;20029;-82
2024/01/18 05:56:10;;;;;;;17.38;11.55;;;-1.20;99.90;;;;;;5039402;28;20036;-84
2024/01/18 05:58:38;;;;;;;17.25;11.70;;;-1.20;99.90;;;;;;5050958;28;20059;-83
2024/01/18 06:01:05;;;;;;;17.13;11.05;;;-1.20;99.90;;;;;;5042388;28;20029;-84
2024/01/18 06:03:48;;;;;;;18.27;12.05;;;-1.20;99.90;;;;;;5075472;28;20483;-84
2024/01/18 06:06:14;;;;;;;18.23;11.88;;;-1.30;99.90;;;;;;5061292;28;20357;-83
2024/01/18 06:08:40;;;;;;;20.42;12.18;;;-1.30;99.90;;;;;;5054304;28;20032;-83
2024/01/18 06:11:07;;;;;;;16.52;11.40;;;-1.30;99.90;;;;;;5053781;28;20029;-83
2024/01/18 06:13:32;;;;;;;17.65;11.65;;;-1.30;99.90;;;;;;5037714;28;20043;-83
2024/01/18 06:15:58;;;;;;;16.50;10.50;;;-1.30;99.90;;;;;;5044249;28;20131;-83
2024/01/18 06:18:24;;;;;;;18.33;11.43;;;-1.40;99.90;;;;;;5049817;28;20037;-82
2024/01/18 06:20:50;;;;;;;16.77;11.50;;;-1.40;99.90;;;;;;5068870;28;20400;-82
2024/01/18 06:23:15;;;;;;;20.40;12.73;;;-1.40;99.90;;;;;;5057654;28;20028;-83
2024/01/18 06:25:41;;;;;;;16.80;11.63;;;-1.40;99.90;;;;;;5053932;28;20033;-82
2024/01/18 06:28:07;;;;;;;15.45;10.88;;;-1.40;99.90;;;;;;5068168;28;20028;-82
2024/01/18 06:30:33;;;;;;;19.42;11.70;;;-1.40;99.90;;;;;;5042484;28;20032;-83
2024/01/18 06:32:58;;;;;;;17.45;11.52;;;-1.40;99.90;;;;;;5061681;28;20024;-82
2024/01/18 06:35:24;;;;;;;15.93;11.10;;;-1.50;99.90;;;;;;5046281;28;20396;-82
2024/01/18 06:37:50;;;;;;;17.30;11.13;;;-1.50;99.90;;;;;;5091649;28;20005;-80
2024/01/18 06:40:17;;;;;;;17.85;11.18;;;-1.50;99.90;;;;;;5078686;28;20073;-81
2024/01/18 06:42:43;;;;;;;18.90;11.93;;;-1.50;99.90;;;;;;5081584;28;20013;-82
2024/01/18 06:45:09;;;;;;;18.75;11.32;;;-1.60;99.90;;;;;;5059765;28;20036;-78
2024/01/18 06:47:35;;;;;;;18.08;11.65;;;-1.60;99.90;;;;;;5048083;28;20032;-80
2024/01/18 06:50:01;;;;;;;20.27;13.23;;;-1.60;99.90;;;;;;5054572;28;20040;-80
2024/01/18 06:52:26;;;;;;;18.23;12.20;;;-1.60;99.90;;;;;;5059099;28;20100;-81
2024/01/18 06:54:52;;;;;;;19.70;12.73;;;-1.70;99.90;;;;;;5052980;28;20033;-81
2024/01/18 06:57:18;;;;;;;17.88;11.75;;;-1.60;99.90;;;;;;5038063;28;20385;-82
2024/01/18 06:59:47;;;;;;;21.48;12.90;;;-1.70;99.90;;;;;;5052874;28;20053;-82
2024/01/18 07:02:14;;;;;;;19.30;12.07;;;-1.70;99.90;;;;;;5055984;28;20547;-82
2024/01/18 07:04:39;;;;;;;18.47;12.60;;;-1.70;99.90;;;;;;5053031;28;20377;-82
2024/01/18 07:07:06;;;;;;;18.33;12.65;;;-1.70;99.90;;;;;;5054777;28;20037;-82
2024/01/18 07:09:32;;;;;;;18.43;11.27;;;-1.70;99.90;;;;;;5036458;28;20123;-83
2024/01/18 07:11:58;;;;;;;17.97;11.30;;;-1.70;99.90;;;;;;5036230;28;20109;-83
2024/01/18 07:14:24;;;;;;;18.85;11.40;;;-1.70;99.90;;;;;;5054692;28;20465;-83
2024/01/18 07:16:50;;;;;;;21.23;12.70;;;-1.70;99.90;;;;;;5055784;28;20029;-83
2024/01/18 07:19:15;;;;;;;16.40;11.35;;;-1.70;99.90;;;;;;5055743;28;20025;-83
2024/01/18 07:21:41;;;;;;;20.97;11.93;;;-1.80;99.90;;;;;;5065768;28;20048;-83
2024/01/18 07:24:07;;;;;;;17.67;11.20;;;-1.80;99.90;;;;;;5025866;28;20067;-83
2024/01/18 07:26:32;;;;;;;18.53;11.33;;;-1.80;99.90;;;;;;5052646;28;20048;-83
2024/01/18 07:28:58;;;;;;;19.07;12.37;;;-1.90;99.90;;;;;;5019053;28;20127;-83
2024/01/18 07:31:23;;;;;;;15.90;11.20;;;-1.90;99.90;;;;;;5035926;28;20025;-83
2024/01/18 07:33:52;;;;;;;16.37;11.03;;;-1.90;99.90;;;;;;5034065;28;20381;-83
2024/01/18 07:36:18;;;;;;;17.02;11.55;;;-1.90;99.90;;;;;;5053811;28;20040;-84
2024/01/18 07:38:43;;;;;;;16.77;11.07;;;-1.80;99.90;;;;;;5052067;28;20029;-84
2024/01/18 07:41:09;;;;;;;15.68;10.70;;;-1.80;99.90;;;;;;5047086;28;20423;-86
2024/01/18 07:43:35;;;;;;;13.57;9.87;;;-1.80;99.90;;;;;;5055529;28;20025;-85
2024/01/18 07:46:02;;;;;;;17.07;10.60;;;-1.70;99.90;;;;;;5053321;28;20044;-84
2024/01/18 07:48:29;;;;;;;15.70;10.50;;;-1.70;99.90;;;;;;5049817;28;20013;-85
2024/01/18 07:50:55;;;;;;;16.17;10.43;;;-1.70;99.90;;;;;;5079174;28;20017;-85
2024/01/18 07:53:21;;;;;;;14.53;9.77;;;-1.70;99.90;;;;;;5077802;28;20036;-84
2024/01/18 07:55:46;;;;;;;15.20;9.87;;;-1.70;99.90;;;;;;5066444;28;20400;-84
2024/01/18 07:58:13;;;;;;;15.32;10.20;;;-1.70;99.90;;;;;;5074888;28;20024;-86
2024/01/18 08:00:41;;;;;;;15.13;9.93;;;-1.70;99.90;;;;;;5044065;28;20048;-85
2024/01/18 08:03:06;;;;;;;16.13;10.03;;;-1.70;99.90;;;;;;5039726;28;20033;-83
2024/01/18 08:05:32;;;;;;;14.30;9.70;;;-1.70;99.90;;;;;;5056872;28;20029;-86
2024/01/18 08:07:58;;;;;;;15.20;9.23;;;-1.70;99.90;;;;;;5039942;28;20024;-86
2024/01/18 08:10:24;;;;;;;13.13;9.17;;;-1.70;99.90;;;;;;5053570;28;20028;-87
2024/01/18 08:12:49;;;;;;;15.80;9.37;;;-1.70;99.90;;;;;;5040241;28;20017;-85
2024/01/18 08:15:15;;;;;;;15.98;9.05;;;-1.70;99.90;;;;;;5041930;28;20457;-86
2024/01/18 08:17:44;;;;;;;15.50;9.70;;;-1.60;99.90;;;;;;5039380;28;20036;-85
2024/01/18 08:20:13;;;;;;;15.23;10.02;;;-1.70;99.90;;;;;;5049761;28;20028;-86
2024/01/18 08:22:40;;;;;;;12.40;9.07;;;-1.70;99.90;;;;;;5076599;28;20102;-86
2024/01/18 08:25:12;;;;;;;14.00;9.48;;;-1.60;99.90;;;;;;5058215;28;20056;-86
2024/01/18 08:27:43;;;;;;;14.53;9.13;;;-1.60;99.90;;;;;;5074479;28;20033;-86
2024/01/18 08:30:09;;;;;;;16.02;10.05;;;-1.60;99.90;;;;;;5069679;28;20375;-87
2024/01/18 08:32:35;;;;;;;13.43;9.40;;;-1.60;99.90;;;;;;5078213;28;20024;-86
2024/01/18 08:35:01;;;;;;;15.25;9.98;;;-1.60;99.90;;;;;;5056747;28;20017;-86
2024/01/18 08:37:27;;;;;;;15.03;9.70;;;-1.60;99.90;;;;;;5056491;28;20025;-85
2024/01/18 08:39:52;;;;;;;16.13;10.02;;;-1.50;99.90;;;;;;5058034;28;20350;-87
2024/01/18 08:42:18;;;;;;;17.13;9.07;;;-1.50;99.90;;;;;;5077833;28;20438;-82
2024/01/18 08:44:45;;;;;;;14.93;10.07;;;-1.50;99.90;;;;;;5074672;28;20564;-85
2024/01/18 08:47:14;;;;;;;16.73;10.13;;;-1.40;99.90;;;;;;5059615;28;20040;-84
2024/01/18 08:49:39;;;;;;;13.98;9.65;;;-1.40;99.90;;;;;;5069354;28;20028;-85
2024/01/18 08:52:05;;;;;;;14.73;10.23;;;-1.40;99.90;;;;;;5059507;28;20034;-84
2024/01/18 08:54:34;;;;;;;14.70;9.73;;;-1.30;99.90;;;;;;5060325;28;20125;-89
2024/01/18 08:57:00;;;;;;;14.18;8.82;;;-1.30;99.90;;;;;;5037544;28;20086;-84
2024/01/18 08:59:25;;;;;;;13.13;8.77;;;-1.30;99.90;;;;;;5073725;28;20052;-84
2024/01/18 09:01:51;;;;;;;13.50;8.50;;;-1.20;99.90;;;;;;5081807;28;20033;-83
2024/01/18 09:04:17;;;;;;;13.13;8.45;;;-1.10;99.90;;;;;;5084263;28;20004;-83
2024/01/18 09:06:43;;;;;;;14.80;9.43;;;-1.10;99.90;;;;;;5083237;28;20013;-84
2024/01/18 09:09:09;;;;;;;15.30;8.52;;;-1.00;99.90;;;;;;5075712;28;20020;-85
2024/01/18 09:11:36;;;;;;;16.77;9.23;;;-0.90;99.90;;;;;;5071236;28;20044;-85
2024/01/18 09:14:05;;;;;;;15.55;9.27;;;-0.90;99.90;;;;;;5055762;28;20082;-84
2024/01/18 09:16:33;;;;;;;15.52;8.90;;;-0.80;99.90;;;;;;5073693;28;20395;-84
2024/01/18 09:19:00;;;;;;;16.33;8.40;;;-0.80;99.90;;;;;;5075521;28;20067;-85
2024/01/18 09:21:26;;;;;;;11.63;7.40;;;-0.70;99.90;;;;;;5072638;28;20078;-85
2024/01/18 09:23:51;;;;;;;13.45;8.00;;;-0.70;99.90;;;;;;5055751;28;20478;-85
2024/01/18 09:26:17;;;;;;;11.32;7.60;;;-0.60;99.90;;;;;;5055278;28;20538;-85
2024/01/18 09:28:44;;;;;;;11.25;7.03;;;-0.50;99.90;;;;;;5045276;28;20021;-86
2024/01/18 09:31:12;;;;;;;13.05;7.60;;;-0.50;99.90;;;;;;5038719;28;20114;-85
2024/01/18 09:33:38;;;;;;;10.07;7.30;;;-0.30;99.90;;;;;;5045455;28;20020;-84
2024/01/18 09:36:05;;;;;;;11.95;7.55;;;-0.30;99.90;;;;;;5039055;28;20112;-85
2024/01/18 09:38:33;;;;;;;12.18;7.28;;;-0.20;99.90;;;;;;5055146;28;20021;-85
2024/01/18 09:41:06;;;;;;;13.50;7.43;;;-0.20;99.90;;;;;;5055407;28;20472;-85
2024/01/18 09:43:36;;;;;;;14.73;7.63;;;-0.10;99.90;;;;;;5055700;28;20541;-86
2024/01/18 09:46:06;;;;;;;13.85;7.30;;;0.00;99.90;;;;;;5071385;28;20046;-85
2024/01/18 09:48:35;;;;;;;10.45;6.85;;;0.00;99.90;;;;;;5076150;28;20021;-85
2024/01/18 09:51:04;;;;;;;14.18;6.78;;;0.10;99.90;;;;;;5075299;28;20020;-85
2024/01/18 09:53:31;;;;;;;13.25;6.93;;;0.20;99.90;;;;;;5065520;28;20025;-85
2024/01/18 09:56:06;;;;;;;11.75;6.85;;;0.20;99.90;;;;;;5038344;28;20033;-86
2024/01/18 09:58:32;;;;;;;10.10;6.82;;;0.30;99.90;;;;;;5057975;28;20032;-86
2024/01/18 10:00:59;;;;;;;9.82;6.20;;;0.40;99.90;;;;;;5054338;28;20033;-86
2024/01/18 10:03:26;;;;;;;12.35;5.97;;;0.50;99.90;;;;;;5056348;28;20385;-86
2024/01/18 10:05:51;;;;;;;9.57;6.10;;;0.50;99.90;;;;;;5072239;28;20051;-87
2024/01/18 10:08:17;;;;;;;8.27;5.65;;;0.60;99.90;;;;;;5056829;28;20043;-86
2024/01/18 10:10:43;;;;;;;8.75;5.75;;;0.60;99.90;;;;;;5063544;28;20032;-86
2024/01/18 10:13:13;;;;;;;8.50;5.28;;;0.70;99.90;;;;;;5057513;28;20166;-86
2024/01/18 10:15:39;;;;;;;10.20;5.15;;;0.80;99.90;;;;;;5056529;28;20021;-87
2024/01/18 10:18:06;;;;;;;7.30;5.13;;;0.80;99.90;;;;;;5061477;28;20040;-87
2024/01/18 10:20:32;;;;;;;7.63;5.20;;;0.90;99.90;;;;;;5078590;28;20110;-86
2024/01/18 10:22:59;;;;;;;9.05;5.63;;;1.00;99.90;;;;;;5068591;28;20025;-86
2024/01/18 10:25:28;;;;;;;8.65;4.50;;;1.00;99.90;;;;;;5059138;28;20460;-87
2024/01/18 10:27:54;;;;;;;7.72;4.25;;;1.10;99.90;;;;;;5043928;28;20040;-86
2024/01/18 10:30:21;;;;;;;6.90;4.32;;;1.20;99.90;;;;;;5071647;28;20025;-85
2024/01/18 10:32:47;;;;;;;7.60;4.82;;;1.20;99.90;;;;;;5054671;28;20067;-87
2024/01/18 10:35:24;;;;;;;11.13;5.50;;;1.20;99.90;;;;;;5059794;28;20028;-86
2024/01/18 10:38:06;;;;;;;9.88;5.30;;;1.30;99.90;;;;;;5067319;28;20087;-86
2024/01/18 10:40:36;;;;;;;11.65;5.60;;;1.40;99.90;;;;;;5054130;28;20025;-86
2024/01/18 10:43:07;;;;;;;9.95;5.32;;;1.40;99.90;;;;;;5057187;28;20025;-86
2024/01/18 10:45:33;;;;;;;;;;;1.50;99.90;;;;;;5066224;28;20051;-86
2024/01/18 10:47:59;;;;;;;10.05;5.53;;;1.50;99.90;;;;;;5054154;28;19904;-86
2024/01/18 10:50:26;;;;;;;10.07;5.80;;;1.50;99.90;;;;;;5067659;28;20043;-86
2024/01/18 10:52:52;;;;;;;9.45;5.20;;;1.60;99.90;;;;;;5057031;28;20035;-85
2024/01/18 10:55:18;;;;;;;8.55;4.90;;;1.60;99.90;;;;;;5073201;28;20016;-85
2024/01/18 10:57:44;;;;;;;9.05;5.35;;;1.70;99.90;;;;;;5074376;28;20039;-85
2024/01/18 11:00:15;;;;;;;6.65;4.10;;;1.70;99.90;;;;;;5074359;28;20480;-86
2024/01/18 11:02:42;;;;;;;;;;;1.80;99.90;;;;;;5058991;28;20036;-86
2024/01/18 11:05:09;;;;;;;6.30;4.13;;;1.90;99.90;;;;;;5093701;28;19904;-85
2024/01/18 11:07:42;;;;;;;9.02;4.53;;;1.90;99.90;;;;;;5062268;28;20028;-85
2024/01/18 11:10:12;;;;;;;7.97;4.65;;;2.00;99.90;;;;;;5041279;28;20028;-86
2024/01/18 11:12:43;;;;;;;6.47;4.15;;;2.00;99.90;;;;;;5059326;28;20062;-85
2024/01/18 11:15:16;;;;;;;8.20;5.22;;;2.10;99.90;;;;;;5078049;28;20119;-85
2024/01/18 11:17:52;;;;;;;7.50;4.25;;;2.10;99.90;;;;;;5056613;28;20447;-85
2024/01/18 11:20:20;;;;;;;7.65;4.68;;;2.20;99.90;;;;;;5075964;28;20073;-86
2024/01/18 11:22:46;;;;;;;6.60;4.05;;;2.30;99.90;;;;;;5056356;28;20100;-85
2024/01/18 11:25:26;;;;;;;8.63;4.38;;;2.30;99.90;;;;;;5056181;28;20384;-83
2024/01/18 11:27:52;;;;;;;6.00;4.03;;;2.40;99.90;;;;;;5056886;28;20296;-85
2024/01/18 11:30:35;;;;;;;8.63;4.40;;;2.50;99.90;;;;;;5081148;28;20024;-86
2024/01/18 11:33:15;;;;;;;7.63;4.47;;;2.50;99.90;;;;;;5098568;28;20004;-84
2024/01/18 11:35:44;;;;;;;7.97;4.43;;;2.50;99.90;;;;;;5064918;28;20076;-84
2024/01/18 11:38:20;;;;;;;10.88;5.35;;;2.60;99.90;;;;;;5096565;28;20278;-86
2024/01/18 11:40:46;;;;;;;8.13;4.38;;;2.60;99.90;;;;;;5058117;28;20035;-87
2024/01/18 11:43:12;;;;;;;5.30;3.80;;;2.70;99.90;;;;;;5056821;28;20129;-85
2024/01/18 11:45:38;;;;;;;7.68;4.95;;;2.70;99.90;;;;;;5056318;28;20461;-86
2024/01/18 11:48:04;;;;;;;8.43;4.25;;;2.70;99.90;;;;;;5039872;28;20032;-86
2024/01/18 11:50:33;;;;;;;5.57;3.60;;;2.70;99.90;;;;;;5056241;28;20040;-85
2024/01/18 11:53:00;;;;;;;6.28;4.15;;;2.70;99.90;;;;;;5074345;28;20107;-86
2024/01/18 11:55:30;;;;;;;7.57;3.90;;;2.80;99.90;;;;;;5056306;28;20024;-85
2024/01/18 11:57:57;;;;;;;6.50;3.73;;;2.80;99.90;;;;;;5073846;28;20537;-85
2024/01/18 12:00:25;;;;;;;6.88;3.63;;;2.80;99.90;;;;;;5055586;28;20052;-85
2024/01/18 12:02:51;;;;;;;5.95;3.50;;;2.90;99.90;;;;;;5022945;28;20055;-85
2024/01/18 12:05:17;;;;;;;5.78;3.22;;;2.90;99.90;;;;;;5055783;28;20021;-85
2024/01/18 12:07:44;;;;;;;6.60;3.35;;;3.00;99.90;;;;;;5038978;28;20502;-84
2024/01/18 12:10:16;;;;;;;7.22;3.40;;;3.00;99.90;;;;;;5055929;28;20085;-85
2024/01/18 12:12:44;;;;;;;4.63;2.80;;;3.10;99.90;;;;;;5073225;28;20024;-85
2024/01/18 12:15:14;;;;;;;5.72;2.65;;;3.20;99.90;;;;;;5073963;28;20096;-86
2024/01/18 12:17:40;;;;;;;6.53;2.83;;;3.30;99.90;;;;;;5055467;28;20136;-85
2024/01/18 12:20:14;;;;;;;3.58;2.70;;;3.30;99.90;;;;;;5055655;28;20085;-86
2024/01/18 12:22:40;;;;;;;6.20;2.83;;;3.40;99.90;;;;;;5055482;28;20029;-85
2024/01/18 12:25:07;;;;;;;8.18;3.00;;;3.40;99.90;;;;;;5041593;28;20032;-85
2024/01/18 12:27:33;;;;;;;6.22;2.97;;;3.50;99.90;;;;;;5077383;28;20162;-85
2024/01/18 12:29:59;;;;;;;5.28;3.05;;;3.50;99.90;;;;;;5043019;28;20074;-85
2024/01/18 12:32:25;;;;;;;5.22;3.03;;;3.60;99.90;;;;;;5059552;28;20032;-85
2024/01/18 12:34:51;;;;;;;7.65;3.22;;;3.60;99.90;;;;;;5042780;28;20464;-85